createdAt,value
2023-05-19T00:01:50.143Z,1.40
2023-05-19T00:04:52.821Z,1.58
2023-05-19T00:08:00.235Z,1.40
2023-05-19T00:11:03.352Z,1.48
2023-05-19T00:14:10.380Z,1.70
2023-05-19T00:17:13.060Z,1.30
2023-05-19T00:20:15.933Z,1.60
2023-05-19T00:23:18.325Z,1.20
2023-05-19T00:26:23.761Z,1.60
2023-05-19T00:29:35.316Z,1.52
2023-05-19T00:32:37.802Z,1.52
2023-05-19T00:35:40.884Z,1.38
2023-05-19T00:38:43.402Z,1.60
2023-05-19T00:41:45.868Z,1.45
2023-05-19T00:44:48.309Z,1.35
2023-05-19T00:47:50.916Z,1.23
2023-05-19T00:51:02.454Z,1.20
2023-05-19T00:54:08.454Z,1.27
2023-05-19T00:57:11.532Z,1.30
2023-05-19T01:00:14.720Z,1.20
2023-05-19T01:03:20.757Z,1.75
2023-05-19T01:06:23.464Z,1.45
2023-05-19T01:09:26.032Z,1.20
2023-05-19T01:12:28.581Z,1.70
2023-05-19T01:15:33.307Z,1.20
2023-05-19T01:18:47.560Z,1.50
2023-05-19T01:21:59.227Z,2.03
2023-05-19T01:25:13.239Z,4.82
2023-05-19T01:28:21.465Z,3.50
2023-05-19T01:31:25.334Z,2.47
2023-05-19T01:34:28.168Z,1.55
2023-05-19T01:37:31.108Z,1.50
2023-05-19T01:40:34.255Z,1.23
2023-05-19T01:43:36.990Z,0.80
2023-05-19T01:46:39.576Z,1.73
2023-05-19T01:49:42.176Z,1.00
2023-05-19T01:52:44.555Z,1.02
2023-05-19T01:55:52.685Z,1.40
2023-05-19T01:59:01.334Z,1.05
2023-05-19T02:02:21.945Z,1.05
2023-05-19T02:05:32.409Z,1.08
2023-05-19T02:08:45.323Z,1.17
2023-05-19T02:11:54.327Z,1.45
2023-05-19T02:15:15.552Z,1.20
2023-05-19T02:18:20.469Z,1.17
2023-05-19T02:21:26.620Z,1.50
2023-05-19T02:24:30.675Z,1.17
2023-05-19T02:27:38.528Z,1.13
2023-05-19T02:30:41.068Z,1.30
2023-05-19T02:33:46.382Z,3.25
2023-05-19T02:36:50.093Z,3.95
2023-05-19T02:39:52.629Z,3.20
2023-05-19T02:42:55.140Z,5.20
2023-05-19T02:45:58.292Z,4.30
2023-05-19T02:49:02.282Z,4.00
2023-05-19T02:52:06.156Z,4.53
2023-05-19T02:55:09.161Z,2.67
2023-05-19T02:58:11.717Z,1.85
2023-05-19T03:01:14.217Z,1.13
2023-05-19T03:04:20.203Z,1.10
2023-05-19T03:07:25.443Z,1.00
2023-05-19T03:10:28.218Z,1.30
2023-05-19T03:13:30.632Z,2.22
2023-05-19T03:16:34.205Z,1.35
2023-05-19T03:19:37.208Z,1.30
2023-05-19T03:22:39.612Z,1.40
2023-05-19T03:25:42.006Z,1.13
2023-05-19T03:28:44.482Z,1.38
2023-05-19T03:31:47.044Z,1.95
2023-05-19T03:34:51.556Z,2.58
2023-05-19T03:37:54.643Z,3.58
2023-05-19T03:40:57.337Z,3.75
2023-05-19T03:44:00.084Z,3.65
2023-05-19T03:47:02.596Z,3.13
2023-05-19T03:50:34.221Z,2.60
2023-05-19T03:53:48.760Z,3.15
2023-05-19T03:56:51.465Z,3.75
2023-05-19T03:59:53.828Z,4.00
2023-05-19T04:02:57.164Z,3.42
2023-05-19T04:05:59.650Z,3.28
2023-05-19T04:09:03.940Z,4.00
2023-05-19T04:15:11.554Z,2.45
2023-05-19T04:18:14.056Z,3.22
2023-05-19T04:21:16.477Z,4.57
2023-05-19T04:24:18.803Z,5.05
2023-05-19T04:27:23.119Z,4.30
2023-05-19T04:30:25.758Z,4.18
2023-05-19T04:33:29.484Z,1.63
2023-05-19T04:36:31.964Z,1.40
2023-05-19T04:39:34.926Z,0.98
2023-05-19T04:42:37.271Z,1.40
2023-05-19T04:45:42.738Z,1.50
2023-05-19T04:48:47.797Z,2.90
2023-05-19T04:51:52.305Z,6.30
2023-05-19T04:55:00.072Z,2.78
2023-05-19T04:58:03.139Z,4.25
2023-05-19T05:01:05.963Z,2.42
2023-05-19T05:04:08.368Z,3.03
2023-05-19T05:07:11.432Z,2.60
2023-05-19T05:10:14.750Z,2.13
2023-05-19T05:13:17.754Z,2.30
2023-05-19T05:16:20.983Z,1.70
2023-05-19T05:19:23.834Z,2.25
2023-05-19T05:22:26.689Z,4.00
2023-05-19T05:25:30.257Z,2.20
2023-05-19T05:28:32.770Z,2.10
2023-05-19T05:31:35.522Z,1.60
2023-05-19T05:34:40.001Z,1.50
2023-05-19T05:40:44.918Z,2.78
2023-05-19T05:43:47.724Z,2.08
2023-05-19T05:46:50.538Z,1.90
2023-05-19T05:49:53.689Z,3.13
2023-05-19T05:52:58.451Z,4.67
2023-05-19T05:56:02.558Z,2.90
2023-05-19T05:59:14.212Z,3.58
2023-05-19T06:02:21.052Z,2.50
2023-05-19T06:05:23.768Z,2.42
2023-05-19T06:08:26.506Z,1.58
2023-05-19T06:11:29.745Z,1.43
2023-05-19T06:14:34.241Z,2.28
2023-05-19T06:17:48.998Z,2.97
2023-05-19T06:20:51.505Z,4.55
2023-05-19T06:23:54.390Z,4.75
2023-05-19T06:26:56.882Z,3.70
2023-05-19T06:30:00.331Z,2.83
2023-05-19T06:33:06.421Z,1.60
2023-05-19T06:36:10.355Z,2.63
2023-05-19T06:39:14.530Z,2.55
2023-05-19T06:42:17.250Z,2.05
2023-05-19T06:45:42.540Z,4.20
2023-05-19T06:48:46.998Z,4.53
2023-05-19T06:51:54.084Z,2.60
2023-05-19T06:54:56.646Z,4.65
2023-05-19T06:57:59.200Z,2.42
2023-05-19T07:01:01.904Z,2.75
2023-05-19T07:04:10.167Z,2.35
2023-05-19T07:07:12.854Z,1.95
2023-05-19T07:10:15.611Z,3.03
2023-05-19T07:13:18.598Z,3.00
2023-05-19T07:16:22.362Z,3.05
2023-05-19T07:19:24.929Z,4.07
2023-05-19T07:22:30.240Z,2.78
2023-05-19T07:25:33.493Z,2.67
2023-05-19T07:28:36.160Z,3.70
2023-05-19T07:31:38.738Z,4.05
2023-05-19T07:34:41.645Z,6.38
2023-05-19T07:37:44.456Z,3.38
2023-05-19T07:40:47.425Z,6.00
2023-05-19T07:43:50.444Z,2.58
2023-05-19T07:46:53.680Z,2.58
2023-05-19T07:49:56.095Z,2.42
2023-05-19T07:52:58.566Z,2.72
2023-05-19T07:56:01.005Z,3.35
2023-05-19T07:59:04.314Z,3.13
2023-05-19T08:02:06.929Z,3.47
2023-05-19T08:05:09.924Z,3.53
2023-05-19T08:08:13.095Z,3.58
2023-05-19T08:11:15.591Z,3.08
2023-05-19T08:14:18.053Z,3.33
2023-05-19T08:17:20.478Z,3.35
2023-05-19T08:20:24.497Z,4.28
2023-05-19T08:23:27.137Z,2.90
2023-05-19T08:26:29.837Z,2.95
2023-05-19T08:29:32.319Z,4.68
2023-05-19T08:32:34.710Z,7.63
2023-05-19T08:35:37.387Z,3.40
2023-05-19T08:38:39.872Z,3.10
2023-05-19T08:41:42.255Z,2.67
2023-05-19T08:44:44.627Z,2.63
2023-05-19T08:47:47.817Z,3.22
2023-05-19T08:51:02.116Z,3.22
2023-05-19T08:54:15.909Z,3.78
2023-05-19T08:57:18.683Z,3.50
2023-05-19T09:00:21.367Z,4.68
2023-05-19T09:03:26.733Z,2.60
2023-05-19T09:06:32.386Z,2.28
2023-05-19T09:09:35.040Z,2.83
2023-05-19T09:12:38.078Z,3.60
2023-05-19T09:15:41.518Z,3.33
2023-05-19T09:18:57.492Z,2.80
2023-05-19T09:22:04.822Z,3.00
2023-05-19T09:25:07.870Z,3.13
2023-05-19T09:28:10.406Z,3.03
2023-05-19T09:31:13.109Z,3.53
2023-05-19T09:34:16.036Z,3.30
2023-05-19T09:37:18.742Z,3.00
2023-05-19T09:40:21.588Z,3.45
2023-05-19T09:43:24.195Z,3.78
2023-05-19T09:46:28.499Z,3.38
2023-05-19T09:52:44.919Z,4.10
2023-05-19T09:55:47.399Z,4.20
2023-05-19T09:58:50.066Z,3.90
2023-05-19T10:02:00.181Z,1.88
2023-05-19T10:05:03.537Z,2.10
2023-05-19T10:08:10.550Z,1.75
2023-05-19T10:11:12.942Z,1.67
2023-05-19T10:14:16.223Z,1.60
2023-05-19T10:17:18.907Z,1.15
2023-05-19T10:20:21.743Z,1.15
2023-05-19T10:23:24.179Z,1.40
2023-05-19T10:26:27.051Z,1.80
2023-05-19T10:29:32.695Z,1.35
2023-05-19T10:32:35.318Z,1.67
2023-05-19T10:35:47.251Z,1.58
2023-05-19T10:38:57.441Z,1.05
2023-05-19T10:42:17.543Z,1.50
2023-05-19T10:45:24.891Z,1.30
2023-05-19T10:48:28.067Z,1.33
2023-05-19T10:51:34.312Z,1.35
2023-05-19T10:54:41.185Z,1.25
2023-05-19T10:57:57.120Z,1.60
2023-05-19T11:01:02.863Z,2.30
2023-05-19T11:04:08.047Z,1.92
2023-05-19T11:07:10.861Z,1.52
2023-05-19T11:10:13.684Z,1.58
2023-05-19T11:13:22.643Z,1.20
2023-05-19T11:16:37.476Z,1.10
2023-05-19T11:19:42.070Z,1.38
2023-05-19T11:23:02.457Z,1.30
2023-05-19T11:26:04.788Z,1.20
2023-05-19T11:29:07.349Z,1.55
2023-05-19T11:32:11.887Z,1.63
2023-05-19T11:35:15.812Z,1.58
2023-05-19T11:38:19.796Z,1.60
2023-05-19T11:41:23.245Z,1.20
2023-05-19T11:44:25.728Z,0.87
2023-05-19T11:47:28.958Z,1.80
2023-05-19T11:50:37.015Z,1.33
2023-05-19T11:53:40.364Z,1.80
2023-05-19T11:56:43.972Z,2.00
2023-05-19T11:59:48.394Z,1.40
2023-05-19T12:02:50.822Z,1.60
2023-05-19T12:05:54.316Z,1.55
2023-05-19T12:08:56.965Z,1.60
2023-05-19T12:11:59.549Z,1.50
2023-05-19T12:15:04.157Z,2.92
2023-05-19T12:18:06.918Z,2.00
2023-05-19T12:21:09.568Z,1.17
2023-05-19T12:24:12.008Z,1.90
2023-05-19T12:27:24.175Z,2.00
2023-05-19T12:30:31.292Z,1.40
2023-05-19T12:33:35.740Z,1.60
2023-05-19T12:39:42.254Z,1.77
2023-05-19T12:42:48.871Z,2.35
2023-05-19T12:45:51.468Z,1.85
2023-05-19T12:49:01.196Z,1.92
2023-05-19T12:52:07.172Z,2.85
2023-05-19T12:55:14.466Z,2.15
2023-05-19T12:58:17.136Z,3.90
2023-05-19T13:01:19.844Z,2.45
2023-05-19T13:04:22.747Z,2.00
2023-05-19T13:07:25.534Z,2.00
2023-05-19T13:10:29.416Z,2.15
2023-05-19T13:13:32.033Z,1.83
2023-05-19T13:16:34.829Z,1.67
2023-05-19T13:19:37.284Z,2.08
2023-05-19T13:22:39.756Z,2.22
2023-05-19T13:25:43.096Z,2.60
2023-05-19T13:28:45.591Z,2.70
2023-05-19T13:31:48.091Z,3.35
2023-05-19T13:34:50.582Z,2.97
2023-05-19T13:37:53.079Z,2.97
2023-05-19T13:40:55.538Z,3.03
2023-05-19T13:44:01.902Z,2.28
2023-05-19T13:47:04.556Z,2.28
2023-05-19T13:50:07.623Z,2.40
2023-05-19T13:53:11.603Z,3.70
2023-05-19T13:56:14.133Z,4.22
2023-05-19T13:59:21.663Z,2.40
2023-05-19T14:02:24.082Z,2.15
2023-05-19T14:05:28.544Z,2.47
2023-05-19T14:08:31.033Z,3.72
2023-05-19T14:11:33.752Z,2.95
2023-05-19T14:14:36.477Z,3.10
2023-05-19T14:17:39.151Z,3.40
2023-05-19T14:20:41.647Z,3.38
2023-05-19T14:23:44.085Z,4.95
2023-05-19T14:26:46.692Z,3.70
2023-05-19T14:29:50.231Z,2.28
2023-05-19T14:32:53.036Z,2.47
2023-05-19T14:35:58.956Z,2.10
2023-05-19T14:39:02.320Z,1.52
2023-05-19T14:42:04.761Z,1.67
2023-05-19T14:45:07.700Z,2.33
2023-05-19T14:48:12.993Z,1.42
2023-05-19T14:51:15.659Z,2.00
2023-05-19T14:54:18.038Z,1.25
2023-05-19T14:57:20.546Z,2.33
2023-05-19T15:00:22.907Z,1.70
2023-05-19T15:03:25.441Z,1.88
2023-05-19T15:06:27.870Z,1.30
2023-05-19T15:09:30.263Z,3.90
2023-05-19T15:12:32.584Z,3.25
2023-05-19T15:15:35.107Z,5.00
2023-05-19T15:18:38.039Z,6.38
2023-05-19T15:21:40.623Z,3.47
2023-05-19T15:24:43.150Z,4.97
2023-05-19T15:27:45.863Z,11.73
2023-05-19T15:30:49.129Z,2.40
2023-05-19T15:33:51.498Z,2.83
2023-05-19T15:36:54.030Z,1.90
2023-05-19T15:39:56.552Z,3.47
2023-05-19T15:42:59.052Z,3.97
2023-05-19T15:46:01.565Z,2.13
2023-05-19T15:49:04.358Z,5.80
2023-05-19T15:52:07.125Z,1.90
2023-05-19T15:55:10.226Z,2.10
2023-05-19T15:58:13.912Z,1.80
2023-05-19T16:01:17.135Z,3.00
2023-05-19T16:04:19.734Z,3.72
2023-05-19T16:07:23.867Z,2.40
2023-05-19T16:10:26.316Z,4.10
2023-05-19T16:13:30.531Z,5.70
2023-05-19T16:16:32.960Z,2.88
2023-05-19T16:19:35.627Z,3.42
2023-05-19T16:22:38.005Z,2.85
2023-05-19T16:25:41.549Z,3.42
2023-05-19T16:28:43.923Z,3.50
2023-05-19T16:31:46.423Z,3.35
2023-05-19T16:34:48.996Z,3.10
2023-05-19T16:37:51.382Z,2.78
2023-05-19T16:40:53.929Z,2.72
2023-05-19T16:43:56.416Z,3.50
2023-05-19T16:46:58.902Z,3.22
2023-05-19T16:50:01.297Z,3.40
2023-05-19T16:53:03.758Z,3.10
2023-05-19T16:56:08.161Z,3.80
2023-05-19T16:59:10.607Z,3.88
2023-05-19T17:02:13.337Z,4.07
2023-05-19T17:05:16.150Z,4.50
2023-05-19T17:08:18.606Z,3.40
2023-05-19T17:11:21.628Z,2.83
2023-05-19T17:14:24.038Z,2.60
2023-05-19T17:17:26.579Z,2.92
2023-05-19T17:20:29.194Z,3.58
2023-05-19T17:23:32.455Z,4.07
2023-05-19T17:26:34.902Z,3.03
2023-05-19T17:29:37.316Z,3.00
2023-05-19T17:32:40.015Z,3.63
2023-05-19T17:35:42.592Z,4.25
2023-05-19T17:38:44.964Z,3.25
2023-05-19T17:41:47.462Z,3.83
2023-05-19T17:44:49.805Z,4.13
2023-05-19T17:47:52.282Z,2.65
2023-05-19T17:50:54.983Z,3.95
2023-05-19T17:53:57.507Z,3.13
2023-05-19T17:57:02.186Z,2.83
2023-05-19T18:00:05.671Z,3.13
2023-05-19T18:03:08.718Z,3.43
2023-05-19T18:06:11.857Z,3.90
2023-05-19T18:09:15.214Z,3.78
2023-05-19T18:12:17.778Z,4.87
2023-05-19T18:15:20.126Z,4.80
2023-05-19T18:18:22.570Z,4.60
2023-05-19T18:21:25.371Z,5.50
2023-05-19T18:24:28.184Z,4.30
2023-05-19T18:27:31.581Z,3.65
2023-05-19T18:30:34.185Z,3.50
2023-05-19T18:33:36.818Z,4.32
2023-05-19T18:36:39.217Z,4.57
2023-05-19T18:39:41.591Z,4.22
2023-05-19T18:42:44.265Z,4.00
2023-05-19T18:45:49.712Z,4.80
2023-05-19T18:48:52.162Z,4.30
2023-05-19T18:51:54.588Z,3.78
2023-05-19T18:54:57.060Z,3.45
2023-05-19T18:57:59.406Z,3.70
2023-05-19T19:01:01.910Z,4.30
2023-05-19T19:04:04.617Z,4.55
2023-05-19T19:07:07.125Z,4.72
2023-05-19T19:10:09.843Z,4.65
2023-05-19T19:13:12.205Z,4.50
2023-05-19T19:16:14.626Z,5.53
2023-05-19T19:19:18.699Z,4.95
2023-05-19T19:22:21.389Z,5.43
2023-05-19T19:25:23.912Z,5.60
2023-05-19T19:28:26.659Z,5.05
2023-05-19T19:31:29.196Z,4.47
2023-05-19T19:34:31.601Z,4.82
2023-05-19T19:37:34.331Z,4.63
2023-05-19T19:40:36.903Z,4.30
2023-05-19T19:43:39.406Z,5.25
2023-05-19T19:46:41.981Z,5.75
2023-05-19T19:49:45.876Z,5.70
2023-05-19T19:52:48.488Z,5.60
2023-05-19T19:56:01.359Z,4.93
2023-05-19T19:59:03.793Z,4.80
2023-05-19T20:02:06.257Z,4.82
2023-05-19T20:05:09.291Z,4.53
2023-05-19T20:08:13.461Z,4.97
2023-05-19T20:11:16.720Z,4.85
2023-05-19T20:14:19.234Z,4.78
2023-05-19T20:17:21.692Z,5.32
2023-05-19T20:20:24.122Z,4.05
2023-05-19T20:23:26.464Z,4.00
2023-05-19T20:26:29.514Z,4.75
2023-05-19T20:29:32.334Z,4.78
2023-05-19T20:32:34.803Z,4.60
2023-05-19T20:35:37.204Z,4.57
2023-05-19T20:38:39.560Z,4.60
2023-05-19T20:41:41.999Z,4.30
2023-05-19T20:44:44.419Z,4.35
2023-05-19T20:47:46.948Z,4.80
2023-05-19T20:50:49.443Z,4.32
2023-05-19T20:53:52.302Z,4.38
2023-05-19T20:56:54.798Z,4.53
2023-05-19T20:59:57.257Z,5.30
2023-05-19T21:02:59.778Z,3.72
2023-05-19T21:06:02.433Z,4.00
2023-05-19T21:09:07.056Z,4.68
2023-05-19T21:12:12.089Z,4.18
2023-05-19T21:15:14.622Z,3.92
2023-05-19T21:18:16.964Z,4.13
2023-05-19T21:21:19.412Z,4.93
2023-05-19T21:24:21.778Z,4.90
2023-05-19T21:27:24.215Z,4.68
2023-05-19T21:30:26.595Z,4.25
2023-05-19T21:33:28.968Z,4.43
2023-05-19T21:36:31.906Z,8.70
2023-05-19T21:39:34.322Z,8.50
2023-05-19T21:42:36.771Z,6.70
2023-05-19T21:45:39.351Z,6.00
2023-05-19T21:48:41.684Z,5.60
2023-05-19T21:51:44.080Z,6.25
2023-05-19T21:54:46.498Z,5.95
2023-05-19T21:57:48.855Z,5.53
2023-05-19T22:00:54.813Z,5.50
2023-05-19T22:03:57.261Z,4.80
2023-05-19T22:06:59.942Z,5.13
2023-05-19T22:10:02.840Z,4.75
2023-05-19T22:13:05.594Z,4.57
2023-05-19T22:16:08.705Z,5.40
2023-05-19T22:19:12.148Z,5.07
2023-05-19T22:22:14.897Z,4.13
2023-05-19T22:25:17.403Z,5.55
2023-05-19T22:28:19.818Z,5.60
2023-05-19T22:31:22.475Z,5.47
2023-05-19T22:34:27.731Z,5.63
2023-05-19T22:37:30.292Z,5.72
2023-05-19T22:40:32.841Z,4.93
2023-05-19T22:43:35.356Z,6.13
2023-05-19T22:46:37.720Z,6.13
2023-05-19T22:49:43.533Z,5.55
2023-05-19T22:52:45.974Z,6.07
2023-05-19T22:55:48.447Z,6.18
2023-05-19T22:58:51.022Z,5.90
2023-05-19T23:01:53.456Z,5.50
2023-05-19T23:04:55.782Z,6.10
2023-05-19T23:08:01.174Z,5.78
2023-05-19T23:11:03.457Z,6.03
2023-05-19T23:14:05.832Z,5.82
2023-05-19T23:17:08.486Z,5.60
2023-05-19T23:20:11.932Z,6.00
2023-05-19T23:23:14.460Z,6.07
2023-05-19T23:26:16.937Z,6.35
2023-05-19T23:29:19.372Z,5.32
2023-05-19T23:32:21.817Z,5.95
2023-05-19T23:35:24.191Z,4.90
2023-05-19T23:38:27.903Z,6.22
2023-05-19T23:41:30.253Z,5.75
2023-05-19T23:44:32.715Z,5.57
2023-05-19T23:47:35.197Z,5.85
2023-05-19T23:50:37.605Z,6.35
2023-05-19T23:53:39.999Z,5.90
2023-05-19T23:56:42.485Z,6.30
2023-05-19T23:59:45.085Z,6.13
